Terminal Aerodrome Forecast
Issued by NWS

Home | Current Version | Previous Version | Text Only | Print | Product List | Glossary On
Versions: 1 2 3 4 5 6 7 8 9 10 11 12 13 14 15 16 17 18
000
FTUS46 KLOX 211800 AAA
TAFPRB
TAF AMD
KPRB 211817Z 2118/2218 00000KT P6SM SCT023
     FM212000 34009KT P6SM SKC
     FM220000 05008KT P6SM SKC
     FM220500 VRB03KT P6SM SKC
     FM221100 VRB03KT P6SM BKN010=

USA.gov is the U.S. government's official web portal to all federal, state and local government web resources and services.